CZ-0059 weather

Private ULM Chabeřice
Chabeřice, Central Bohemian Region, Czechia

Public forecast

Using degrees Celsius for public forecast. Weather courtesy of forecast.io.

METAR (pilot weather report)

Closest report is Čáslav Air Base, 16.9 nm (31.2 km) NE. Retrieved 2019/09/19 03:00 UTC (4 minutes ago):

LKCV 190300Z 31004KT CAVOK 07/05 Q1025 NOSIG RMK BLU BLU

TAF (pilot weather forecast)

Closest forecast is Čáslav Air Base, 16.9 nm (31.2 km) NE. Retrieved 2019/09/19 00:06 UTC (3 hours ago):

TAF LKCV 182300Z 1900/2000 31006KT CAVOK BECMG 1907/1909 31016KT TEMPO 1908/1913 BKN040 BECMG 1916/1919 24004KT